Time;durP1;ratioP1;P1;durP2;ratioP2;P2;SDS_P1;SDS_P2;PMS_P1;PMS_P2;Temp;Humidity;BMP_temperature;BMP_pressure;BME280_temperature;BME280_humidity;BME280_pressure;Samples;Min_cycle;Max_cycle;Signal;HPM_P1;HPM_P2
2023/06/28 00:01:14;;;;;;;7.50;4.20;;;;;;;11.02;82.35;97708.73;106840;1276;22576;-77
2023/06/28 00:04:00;;;;;;;5.80;4.00;;;;;;;11.00;82.12;97710.34;106791;1276;22571;-77
2023/06/28 00:06:28;;;;;;;7.70;3.50;;;;;;;11.01;82.30;97713.24;106841;1276;25363;-77
2023/06/28 00:08:54;;;;;;;6.50;4.40;;;;;;;11.01;82.83;97714.83;106765;1276;22528;-76
2023/06/28 00:11:21;;;;;;;6.30;3.80;;;;;;;11.00;82.91;97717.52;106814;1276;25427;-77
2023/06/28 00:13:47;;;;;;;7.90;4.30;;;;;;;10.96;82.78;97718.25;106757;1277;22538;-76
2023/06/28 00:16:14;;;;;;;7.90;4.20;;;;;;;10.97;82.75;97715.48;106783;1276;22542;-76
2023/06/28 00:18:43;;;;;;;5.80;4.20;;;;;;;10.97;83.01;97715.21;106764;1276;25500;-76
2023/06/28 00:21:13;;;;;;;5.70;4.30;;;;;;;10.95;83.53;97713.31;106778;1277;22610;-76
2023/06/28 00:23:40;;;;;;;8.00;4.50;;;;;;;10.90;84.29;97712.24;106763;1277;22602;-76
2023/06/28 00:26:07;;;;;;;7.70;4.20;;;;;;;10.86;84.75;97710.65;106739;1276;25427;-77
2023/06/28 00:28:34;;;;;;;5.60;3.90;;;;;;;10.84;84.26;97709.21;106780;1276;25284;-77
2023/06/28 00:31:01;;;;;;;5.50;3.40;;;;;;;10.82;84.39;97712.65;106788;1276;22527;-76
2023/06/28 00:33:28;;;;;;;5.40;3.80;;;;;;;10.79;83.75;97707.64;106771;1276;22511;-77
2023/06/28 00:35:54;;;;;;;7.50;4.30;;;;;;;10.78;84.95;97712.23;106702;1276;22621;-78
2023/06/28 00:38:21;;;;;;;7.10;4.30;;;;;;;10.73;84.76;97713.71;106784;1276;26617;-78
2023/06/28 00:40:48;;;;;;;8.70;4.40;;;;;;;10.69;83.75;97715.42;106818;1276;22575;-78
2023/06/28 00:43:14;;;;;;;10.00;4.20;;;;;;;10.68;83.84;97708.48;107025;1276;22641;-77
2023/06/28 00:45:42;;;;;;;8.40;3.80;;;;;;;10.70;83.92;97709.34;106874;1276;22616;-76
2023/06/28 00:48:09;;;;;;;6.80;4.60;;;;;;;10.71;84.01;97706.08;106532;1277;25325;-77
2023/06/28 00:50:37;;;;;;;6.20;4.80;;;;;;;10.69;83.94;97707.44;106799;1277;22661;-77
2023/06/28 00:53:04;;;;;;;8.80;4.70;;;;;;;10.68;83.84;97706.80;106754;1277;25568;-78
2023/06/28 00:55:31;;;;;;;8.60;4.40;;;;;;;10.70;84.04;97710.96;106729;1277;22791;-77
2023/06/28 00:57:58;;;;;;;6.10;4.40;;;;;;;10.69;83.88;97706.35;106764;1277;22524;-77
2023/06/28 01:00:26;;;;;;;6.60;4.30;;;;;;;10.69;84.90;97706.45;106779;1277;24399;-77
2023/06/28 01:02:53;;;;;;;8.10;4.40;;;;;;;10.69;84.66;97711.27;106750;1263;22580;-77
2023/06/28 01:05:20;;;;;;;7.50;5.10;;;;;;;10.66;84.80;97711.65;106557;1277;24231;-77
2023/06/28 01:07:51;;;;;;;7.60;4.80;;;;;;;10.64;84.22;97710.17;106772;1277;22516;-77
2023/06/28 01:10:19;;;;;;;8.50;4.60;;;;;;;10.66;85.15;97709.55;106788;1276;25588;-77
2023/06/28 01:12:47;;;;;;;9.00;4.40;;;;;;;10.66;84.75;97704.11;106812;1276;25268;-78
2023/06/28 01:15:14;;;;;;;7.80;4.80;;;;;;;10.67;84.91;97700.69;106856;1276;25405;-76
2023/06/28 01:17:41;;;;;;;7.30;4.70;;;;;;;10.64;85.57;97698.22;106761;1276;23898;-76
2023/06/28 01:20:08;;;;;;;8.10;5.00;;;;;;;10.60;85.53;97699.86;106742;1277;25408;-77
2023/06/28 01:22:40;;;;;;;9.00;4.40;;;;;;;10.54;85.62;97698.28;106762;1277;22543;-77
2023/06/28 01:25:09;;;;;;;8.20;4.40;;;;;;;10.50;85.23;97695.85;106754;1277;22532;-77
2023/06/28 01:27:40;;;;;;;6.80;4.70;;;;;;;10.44;85.37;97695.80;106789;1277;22658;-77
2023/06/28 01:30:10;;;;;;;7.50;4.40;;;;;;;10.35;84.87;97694.38;106802;1277;25529;-77
2023/06/28 01:32:37;;;;;;;7.70;4.20;;;;;;;10.30;85.42;97692.48;106808;1277;22586;-77
2023/06/28 01:35:05;;;;;;;9.60;4.80;;;;;;;10.36;86.35;97691.52;106749;1277;24060;-77
2023/06/28 01:37:32;;;;;;;10.10;4.60;;;;;;;10.41;87.00;97692.95;106767;1276;24193;-77
2023/06/28 01:40:00;;;;;;;7.20;4.50;;;;;;;10.49;86.66;97696.45;106755;1277;22805;-77
2023/06/28 01:42:27;;;;;;;6.10;4.20;;;;;;;10.54;86.63;97693.61;106751;1277;25330;-77
2023/06/28 01:44:54;;;;;;;6.40;4.60;;;;;;;10.61;86.01;97689.30;106767;1276;24250;-77
2023/06/28 01:47:20;;;;;;;9.70;5.50;;;;;;;10.62;85.63;97693.67;106767;1277;22683;-77
2023/06/28 01:49:47;;;;;;;8.60;4.70;;;;;;;10.60;85.78;97694.42;106552;1278;22531;-77
2023/06/28 01:52:15;;;;;;;6.60;5.10;;;;;;;10.63;86.33;97691.66;106742;1277;23121;-77
2023/06/28 01:54:41;;;;;;;9.60;4.70;;;;;;;10.65;86.06;97696.52;106735;1277;22534;-78
2023/06/28 01:57:08;;;;;;;5.30;3.80;;;;;;;10.70;85.79;97690.91;106991;1276;22608;-77
2023/06/28 01:59:35;;;;;;;6.00;4.20;;;;;;;10.67;85.21;97691.48;106704;1277;25139;-78
2023/06/28 02:02:03;;;;;;;4.90;3.90;;;;;;;10.63;85.37;97690.16;106752;1277;22694;-78
2023/06/28 02:04:32;;;;;;;6.40;4.60;;;;;;;10.53;85.31;97686.95;106753;1277;22541;-78
2023/06/28 02:06:59;;;;;;;7.30;4.50;;;;;;;10.34;85.82;97691.17;106719;1277;25380;-76
2023/06/28 02:09:26;;;;;;;8.30;4.60;;;;;;;10.13;85.95;97690.98;106459;1277;25294;-77
2023/06/28 02:11:52;;;;;;;13.20;5.20;;;;;;;10.01;86.05;97687.02;106993;1277;25280;-76
2023/06/28 02:14:19;;;;;;;7.50;4.00;;;;;;;9.98;86.36;97685.02;106750;1277;24199;-76
2023/06/28 02:16:45;;;;;;;7.60;5.00;;;;;;;10.00;86.04;97686.89;106772;1277;22544;-77
2023/06/28 02:19:16;;;;;;;5.60;4.50;;;;;;;9.95;86.52;97689.55;106761;1277;22526;-77
2023/06/28 02:21:43;;;;;;;8.40;4.60;;;;;;;10.04;86.91;97692.88;106921;1277;24196;-77
2023/06/28 02:24:10;;;;;;;7.60;4.40;;;;;;;10.11;87.32;97696.25;106767;1277;22591;-77
2023/06/28 02:26:38;;;;;;;6.60;5.00;;;;;;;10.21;86.60;97701.44;106990;1277;25591;-77
2023/06/28 02:29:05;;;;;;;7.60;5.00;;;;;;;10.16;86.00;97702.83;106744;1277;23897;-77
2023/06/28 02:31:32;;;;;;;7.60;4.80;;;;;;;10.03;85.95;97697.69;106737;1277;25388;-77
2023/06/28 02:33:58;;;;;;;6.70;4.80;;;;;;;10.07;86.41;97697.66;106731;1277;22516;-77
2023/06/28 02:36:25;;;;;;;6.70;4.60;;;;;;;10.13;87.69;97694.10;106750;1276;22531;-77
2023/06/28 02:38:52;;;;;;;7.30;4.70;;;;;;;10.24;87.26;97696.62;106722;1277;25354;-77
2023/06/28 02:41:18;;;;;;;6.30;4.60;;;;;;;10.26;86.20;97694.49;106740;1277;24228;-77
2023/06/28 02:43:45;;;;;;;6.70;4.90;;;;;;;10.15;86.54;97691.32;106761;1277;22591;-77
2023/06/28 02:46:12;;;;;;;8.40;5.60;;;;;;;10.02;86.53;97691.02;106517;1277;25472;-78
2023/06/28 02:48:39;;;;;;;7.00;5.00;;;;;;;9.94;86.82;97689.80;106716;1277;22554;-77
2023/06/28 02:51:06;;;;;;;8.60;5.50;;;;;;;9.85;86.74;97698.05;106937;1276;24498;-76
2023/06/28 02:53:32;;;;;;;10.10;5.10;;;;;;;9.75;87.13;97702.48;106670;1277;24198;-77
2023/06/28 02:55:59;;;;;;;6.20;5.10;;;;;;;9.68;87.62;97699.39;106535;1276;22531;-76
2023/06/28 02:58:54;;;;;;;6.90;4.80;;;;;;;9.72;88.44;97696.25;106387;1277;22647;-77
2023/06/28 03:01:21;;;;;;;7.00;4.80;;;;;;;9.69;87.30;97700.77;106717;1277;22523;-76
2023/06/28 03:03:48;;;;;;;10.30;5.80;;;;;;;9.62;87.49;97701.39;106583;1277;25357;-78
2023/06/28 03:06:15;;;;;;;7.50;5.40;;;;;;;9.62;87.73;97698.27;106581;1276;23335;-77
2023/06/28 03:08:42;;;;;;;8.30;5.10;;;;;;;9.55;88.12;97697.13;106737;1277;25378;-76
2023/06/28 03:11:08;;;;;;;10.10;5.10;;;;;;;9.54;88.24;97691.88;106502;1276;23397;-77
2023/06/28 03:13:35;;;;;;;6.60;4.60;;;;;;;9.60;88.79;97689.54;106792;1276;22542;-77
2023/06/28 03:16:01;;;;;;;7.10;4.70;;;;;;;9.62;88.96;97692.92;106767;1276;22530;-77
2023/06/28 03:18:28;;;;;;;7.20;4.90;;;;;;;9.67;89.04;97690.64;106503;1276;22531;-76
2023/06/28 03:20:56;;;;;;;7.10;5.10;;;;;;;9.71;89.33;97686.36;106741;1276;22656;-76
2023/06/28 03:23:22;;;;;;;8.10;5.30;;;;;;;9.73;88.99;97688.48;106695;1276;22555;-77
2023/06/28 03:25:49;;;;;;;10.00;4.80;;;;;;;9.78;89.11;97691.02;106786;1276;22578;-77
2023/06/28 03:28:16;;;;;;;7.00;4.70;;;;;;;9.83;89.23;97690.55;106667;1277;25566;-78
2023/06/28 03:30:43;;;;;;;7.30;4.90;;;;;;;9.88;89.87;97694.87;106891;1276;25363;-76
2023/06/28 03:33:10;;;;;;;7.40;5.20;;;;;;;9.91;89.98;97691.36;106756;1276;22528;-77
2023/06/28 03:35:36;;;;;;;6.90;5.10;;;;;;;9.93;90.12;97691.17;106479;1277;24216;-77
2023/06/28 03:38:03;;;;;;;8.50;5.40;;;;;;;9.96;90.74;97691.04;106748;1267;22756;-77
2023/06/28 03:40:30;;;;;;;6.90;5.20;;;;;;;9.99;91.39;97691.95;106456;1277;22540;-77
2023/06/28 03:42:56;;;;;;;8.60;5.00;;;;;;;10.04;91.20;97692.08;106743;1276;25507;-77
2023/06/28 03:45:23;;;;;;;11.10;5.40;;;;;;;10.10;91.66;97691.34;106757;1276;25358;-77
2023/06/28 03:47:50;;;;;;;6.50;4.80;;;;;;;10.16;91.75;97694.79;106697;1277;22531;-77
2023/06/28 03:50:16;;;;;;;8.40;4.40;;;;;;;10.23;91.63;97696.77;106578;1277;24266;-77
2023/06/28 03:52:43;;;;;;;8.10;4.60;;;;;;;10.31;91.01;97696.62;106760;1276;22594;-76
2023/06/28 03:55:12;;;;;;;8.00;5.00;;;;;;;10.41;91.30;97698.48;106778;1277;25325;-77
2023/06/28 03:57:40;;;;;;;7.10;4.40;;;;;;;10.52;91.39;97695.26;106561;1277;24192;-77
2023/06/28 04:00:10;;;;;;;8.20;4.80;;;;;;;10.61;91.31;97694.84;106744;1276;22736;-77
2023/06/28 04:02:40;;;;;;;7.20;5.10;;;;;;;10.67;91.35;97698.70;106735;1276;24241;-77
2023/06/28 04:05:08;;;;;;;14.70;5.50;;;;;;;10.75;91.20;97703.20;106755;1276;24250;-77
2023/06/28 04:07:35;;;;;;;9.10;5.20;;;;;;;10.86;91.03;97704.02;106725;1276;25338;-77
2023/06/28 04:10:03;;;;;;;13.00;5.10;;;;;;;10.99;91.03;97708.20;106726;1276;22828;-77
2023/06/28 04:12:29;;;;;;;10.80;5.40;;;;;;;11.09;91.16;97708.45;106780;1276;22801;-77
2023/06/28 04:14:56;;;;;;;11.40;5.60;;;;;;;11.19;91.46;97710.48;106736;1277;22534;-77
2023/06/28 04:17:23;;;;;;;16.50;5.50;;;;;;;11.27;91.94;97713.20;106725;1276;26928;-76
2023/06/28 04:19:49;;;;;;;15.10;5.40;;;;;;;11.35;91.88;97708.94;106990;1276;22570;-77
2023/06/28 04:22:16;;;;;;;12.60;5.00;;;;;;;11.46;91.73;97707.87;106864;1277;25351;-78
2023/06/28 04:24:43;;;;;;;10.40;5.20;;;;;;;11.55;91.94;97712.07;106786;1277;22667;-77
2023/06/28 04:27:09;;;;;;;9.80;5.70;;;;;;;11.64;92.01;97709.89;106807;1278;23486;-77
2023/06/28 04:29:36;;;;;;;12.20;5.80;;;;;;;11.70;91.57;97708.55;106518;1277;22550;-77
2023/06/28 04:32:19;;;;;;;7.60;4.40;;;;;;;11.79;91.49;97710.98;106533;1277;22551;-77
2023/06/28 04:34:46;;;;;;;7.50;4.40;;;;;;;11.91;91.45;97711.91;106980;1257;22547;-77
2023/06/28 04:37:12;;;;;;;11.40;4.70;;;;;;;12.00;91.24;97713.83;106609;1277;22551;-76
2023/06/28 04:39:43;;;;;;;6.40;4.70;;;;;;;12.10;90.56;97714.66;106531;1273;22540;-74
2023/06/28 04:42:14;;;;;;;8.20;5.10;;;;;;;12.17;90.09;97707.27;106709;1277;25397;-78
2023/06/28 04:44:46;;;;;;;11.60;4.90;;;;;;;12.24;89.72;97707.13;106570;1277;223995;-76
2023/06/28 04:47:17;;;;;;;9.60;4.70;;;;;;;12.28;89.26;97709.49;106559;1277;22651;-75
2023/06/28 04:49:48;;;;;;;5.80;4.40;;;;;;;12.36;89.34;97705.67;106500;1278;22671;-74
2023/06/28 04:52:18;;;;;;;10.30;4.70;;;;;;;12.46;89.00;97709.70;106791;1278;23947;-74
2023/06/28 04:54:46;;;;;;;8.70;4.50;;;;;;;12.56;88.79;97708.70;106740;1277;26608;-76
2023/06/28 04:57:14;;;;;;;8.30;4.20;;;;;;;12.64;88.16;97713.09;106600;1278;25219;-76
2023/06/28 04:59:41;;;;;;;7.30;4.10;;;;;;;12.71;87.95;97708.69;106604;1277;22656;-74
2023/06/28 05:02:09;;;;;;;9.80;4.50;;;;;;;12.84;87.40;97707.86;106431;1278;22659;-75
2023/06/28 05:04:39;;;;;;;5.90;3.80;;;;;;;12.97;87.35;97708.21;106524;1277;23532;-76
2023/06/28 05:07:09;;;;;;;11.80;4.50;;;;;;;13.04;86.97;97709.29;106533;1278;22575;-74
2023/06/28 05:09:37;;;;;;;7.40;4.40;;;;;;;13.14;86.75;97715.02;106602;1277;22537;-75
2023/06/28 05:12:05;;;;;;;7.00;3.70;;;;;;;13.19;86.40;97705.93;106700;1278;23152;-74
2023/06/28 05:14:31;;;;;;;9.70;4.20;;;;;;;13.24;86.61;97706.61;106972;1270;22531;-75
2023/06/28 05:16:58;;;;;;;10.00;3.90;;;;;;;13.30;86.11;97705.02;106677;1276;23559;-75
2023/06/28 05:19:25;;;;;;;9.20;3.60;;;;;;;13.38;85.46;97706.39;106762;1276;23581;-75
2023/06/28 05:21:53;;;;;;;6.30;4.10;;;;;;;13.43;85.42;97702.36;106873;1267;25105;-75
2023/06/28 05:24:21;;;;;;;8.20;3.50;;;;;;;13.55;84.85;97703.95;106828;1277;24255;-76
2023/06/28 05:26:47;;;;;;;7.70;3.50;;;;;;;13.62;84.10;97698.81;106738;1276;22630;-77
2023/06/28 05:29:14;;;;;;;6.00;3.30;;;;;;;13.70;84.54;97693.47;106799;1277;24209;-75
2023/06/28 05:31:42;;;;;;;6.50;3.40;;;;;;;13.79;84.41;97692.80;106684;1276;22567;-76
2023/06/28 05:34:10;;;;;;;6.20;3.90;;;;;;;13.85;83.53;97693.13;107002;1276;22603;-77
2023/06/28 05:36:37;;;;;;;7.20;3.60;;;;;;;13.86;83.03;97695.39;106733;1270;22529;-77
2023/06/28 05:39:04;;;;;;;11.30;3.70;;;;;;;13.91;83.32;97699.85;106791;1276;24196;-77
2023/06/28 05:41:30;;;;;;;7.10;3.40;;;;;;;14.00;82.85;97690.84;107065;1277;22564;-77
2023/06/28 05:43:57;;;;;;;6.60;3.70;;;;;;;14.12;82.47;97688.52;107018;1270;25278;-76
2023/06/28 05:46:24;;;;;;;5.50;3.50;;;;;;;14.25;81.48;97695.30;106691;1277;24244;-75
2023/06/28 05:48:50;;;;;;;9.80;3.90;;;;;;;14.30;81.03;97688.80;106624;1277;22547;-75
2023/06/28 05:51:17;;;;;;;8.30;3.70;;;;;;;14.37;80.21;97689.67;106618;1276;25230;-75
2023/06/28 05:53:44;;;;;;;7.90;4.00;;;;;;;14.42;80.09;97693.83;106665;1277;25473;-75
2023/06/28 05:56:11;;;;;;;5.10;3.30;;;;;;;14.45;80.17;97691.19;106698;1277;22829;-75
2023/06/28 05:58:37;;;;;;;7.20;3.80;;;;;;;14.43;79.86;97695.41;106913;1276;25570;-76
2023/06/28 06:01:04;;;;;;;7.50;3.70;;;;;;;14.49;79.98;97698.29;106719;1258;22541;-75
2023/06/28 06:03:30;;;;;;;7.20;3.90;;;;;;;14.57;79.21;97697.19;106754;1277;22713;-76
2023/06/28 06:05:57;;;;;;;10.10;4.10;;;;;;;14.63;79.13;97697.63;106865;1276;22621;-75
2023/06/28 06:08:24;;;;;;;9.00;3.70;;;;;;;14.59;79.04;97705.48;107051;1276;22639;-76
2023/06/28 06:10:51;;;;;;;6.70;3.70;;;;;;;14.49;79.27;97696.95;106755;1276;24349;-75
2023/06/28 06:13:38;;;;;;;23.50;11.30;;;;;;;14.47;79.18;97697.71;106975;1276;22536;-78
2023/06/28 06:16:04;;;;;;;51.80;26.10;;;;;;;14.46;78.86;97697.62;106819;1277;24273;-77
2023/06/28 06:18:31;;;;;;;9.60;4.70;;;;;;;14.50;78.69;97698.62;106788;1270;24327;-76
2023/06/28 06:20:58;;;;;;;9.20;4.50;;;;;;;14.53;78.49;97689.77;106786;1269;25402;-75
2023/06/28 06:23:25;;;;;;;16.30;6.20;;;;;;;14.56;78.00;97691.12;106748;1259;22632;-78
2023/06/28 06:25:52;;;;;;;21.00;9.20;;;;;;;14.60;78.48;97687.45;106930;1277;24196;-76
2023/06/28 06:28:18;;;;;;;9.90;4.90;;;;;;;14.72;78.80;97687.91;106735;1276;26533;-77
2023/06/28 06:30:45;;;;;;;7.20;3.60;;;;;;;14.82;78.12;97686.73;106808;1277;24316;-77
2023/06/28 06:33:12;;;;;;;8.60;3.70;;;;;;;14.88;77.82;97688.27;106984;1276;22542;-77
2023/06/28 06:35:39;;;;;;;5.80;3.20;;;;;;;14.88;77.96;97689.44;106734;1276;25274;-77
2023/06/28 06:38:06;;;;;;;8.40;3.90;;;;;;;14.92;77.73;97691.20;106727;1276;25516;-77
2023/06/28 06:40:33;;;;;;;9.80;4.20;;;;;;;14.90;77.59;97695.65;106648;1277;22547;-77
2023/06/28 06:43:00;;;;;;;6.80;4.00;;;;;;;14.88;78.07;97692.70;106643;1277;22576;-77
2023/06/28 06:45:26;;;;;;;8.70;3.90;;;;;;;14.92;78.10;97696.08;106756;1276;24218;-77
2023/06/28 06:47:53;;;;;;;6.40;3.90;;;;;;;14.94;78.20;97690.44;106690;1277;24241;-76
2023/06/28 06:50:20;;;;;;;7.50;3.50;;;;;;;15.05;78.24;97687.34;106620;1277;25230;-77
2023/06/28 06:52:46;;;;;;;8.30;4.70;;;;;;;15.14;78.29;97687.96;106655;1276;22534;-77
2023/06/28 06:55:13;;;;;;;6.40;3.30;;;;;;;15.26;78.10;97681.18;106680;1276;22656;-77
2023/06/28 06:57:40;;;;;;;8.80;3.60;;;;;;;15.46;77.77;97683.25;106645;1276;22583;-78
2023/06/28 07:00:08;;;;;;;5.80;3.30;;;;;;;15.56;77.06;97677.45;106637;1276;25324;-76
2023/06/28 07:02:35;;;;;;;7.10;3.50;;;;;;;15.54;77.06;97678.23;106745;1276;24197;-76
2023/06/28 07:05:02;;;;;;;8.10;3.20;;;;;;;15.54;76.42;97683.29;106689;1276;25297;-76
2023/06/28 07:07:29;;;;;;;5.80;3.30;;;;;;;15.48;76.53;97680.38;106669;1276;25287;-77
2023/06/28 07:09:55;;;;;;;5.40;3.10;;;;;;;15.57;76.69;97673.30;106620;1276;22554;-77
2023/06/28 07:12:22;;;;;;;6.10;3.80;;;;;;;15.64;76.27;97672.16;106716;1276;24250;-77
2023/06/28 07:14:49;;;;;;;6.50;3.30;;;;;;;15.72;76.10;97676.25;106674;1276;22557;-77
2023/06/28 07:17:16;;;;;;;6.00;3.40;;;;;;;15.85;76.06;97669.29;106738;1276;22707;-77
2023/06/28 07:19:43;;;;;;;6.10;3.80;;;;;;;15.98;75.64;97672.45;106657;1276;22567;-77
2023/06/28 07:22:09;;;;;;;8.20;3.30;;;;;;;16.15;75.78;97672.73;106497;1276;25233;-77
2023/06/28 07:24:36;;;;;;;10.40;3.40;;;;;;;16.35;74.77;97673.96;106638;1276;22743;-77
2023/06/28 07:27:03;;;;;;;5.60;3.10;;;;;;;16.43;74.39;97682.14;106645;1276;22547;-77
2023/06/28 07:29:32;;;;;;;6.30;3.70;;;;;;;16.39;73.79;97676.56;106670;1276;25188;-77
2023/06/28 07:31:59;;;;;;;4.80;2.70;;;;;;;16.31;73.80;97682.95;106666;1276;25461;-77
2023/06/28 07:34:25;;;;;;;5.40;3.00;;;;;;;16.31;73.11;97675.66;106621;1277;25144;-76
2023/06/28 07:36:52;;;;;;;6.50;4.00;;;;;;;16.22;73.27;97677.56;106659;1276;22576;-77
2023/06/28 07:39:19;;;;;;;8.90;3.80;;;;;;;16.27;73.12;97687.86;106641;1276;22537;-77
2023/06/28 07:41:45;;;;;;;7.60;3.30;;;;;;;16.37;72.85;97672.10;106695;1277;25365;-77
2023/06/28 07:44:12;;;;;;;5.40;2.60;;;;;;;16.54;72.94;97668.34;106684;1276;25258;-76
2023/06/28 07:46:38;;;;;;;6.50;2.90;;;;;;;16.71;71.70;97672.64;106690;1276;22537;-78
2023/06/28 07:49:05;;;;;;;5.80;2.90;;;;;;;16.72;70.97;97671.20;106618;1276;22603;-78
2023/06/28 07:51:32;;;;;;;10.30;3.10;;;;;;;16.74;70.47;97664.04;106642;1276;24364;-79
2023/06/28 07:53:58;;;;;;;8.30;3.30;;;;;;;16.82;70.18;97661.88;106891;1276;22567;-75
2023/06/28 07:56:25;;;;;;;10.60;3.30;;;;;;;16.80;70.40;97655.21;106632;1276;23896;-75
2023/06/28 07:58:52;;;;;;;4.80;3.10;;;;;;;16.83;70.47;97654.96;106736;1276;22534;-75
2023/06/28 08:01:18;;;;;;;6.40;3.00;;;;;;;16.82;70.16;97659.00;106792;1276;25468;-76
2023/06/28 08:03:45;;;;;;;5.10;2.80;;;;;;;16.78;69.74;97663.47;106683;1276;22600;-78
2023/06/28 08:06:12;;;;;;;6.80;2.90;;;;;;;16.72;68.89;97662.79;106739;1276;24250;-76
2023/06/28 08:08:38;;;;;;;7.40;3.00;;;;;;;16.78;69.03;97652.42;106722;1276;22540;-77
2023/06/28 08:11:05;;;;;;;4.40;2.60;;;;;;;16.91;67.84;97655.20;106665;1276;22530;-77
2023/06/28 08:13:32;;;;;;;8.20;3.30;;;;;;;17.03;67.88;97648.46;106705;1276;24227;-77
2023/06/28 08:15:59;;;;;;;5.90;2.90;;;;;;;17.29;68.34;97649.39;107006;1276;25411;-76
2023/06/28 08:18:26;;;;;;;5.90;2.80;;;;;;;17.50;67.50;97654.60;106796;1276;23004;-75
2023/06/28 08:20:53;;;;;;;6.50;2.90;;;;;;;17.65;65.53;97655.23;106791;1276;24403;-75
2023/06/28 08:23:21;;;;;;;7.80;2.70;;;;;;;17.61;64.80;97656.45;106744;1269;25353;-75
2023/06/28 08:25:47;;;;;;;4.70;2.80;;;;;;;17.54;64.28;97656.12;106760;1269;22526;-75
2023/06/28 08:28:14;;;;;;;8.30;2.90;;;;;;;17.35;64.29;97659.98;106779;1276;24224;-75
2023/06/28 08:30:41;;;;;;;6.20;3.00;;;;;;;17.27;64.46;97640.31;106706;1276;22580;-76
2023/06/28 08:33:07;;;;;;;4.20;3.00;;;;;;;17.42;64.55;97642.48;106677;1276;24252;-75
2023/06/28 08:35:34;;;;;;;7.50;2.80;;;;;;;17.45;64.06;97644.84;106702;1276;22537;-76
2023/06/28 08:38:01;;;;;;;9.20;3.50;;;;;;;17.33;63.26;97641.49;106512;1276;25278;-75
2023/06/28 08:40:29;;;;;;;5.00;2.70;;;;;;;17.18;63.36;97643.20;106709;1269;22806;-76
2023/06/28 08:43:00;;;;;;;8.60;2.90;;;;;;;17.23;63.10;97635.71;106833;1276;22545;-76
2023/06/28 08:45:30;;;;;;;7.60;3.30;;;;;;;17.35;62.91;97625.02;107184;1269;24228;-76
2023/06/28 08:47:58;;;;;;;6.50;3.00;;;;;;;17.52;63.34;97620.20;106902;1269;25325;-76
2023/06/28 08:50:25;;;;;;;5.00;3.10;;;;;;;17.64;62.75;97626.63;107210;1276;25297;-76
2023/06/28 08:52:53;;;;;;;8.80;3.00;;;;;;;17.83;60.81;97626.42;107158;1276;22549;-76
2023/06/28 08:55:21;;;;;;;7.00;2.90;;;;;;;17.87;59.57;97617.88;106742;1276;25362;-75
2023/06/28 08:57:48;;;;;;;8.60;3.80;;;;;;;17.89;60.84;97617.77;106703;1276;24253;-76
2023/06/28 09:00:15;;;;;;;5.20;3.10;;;;;;;17.97;61.14;97619.34;106694;1276;22531;-77
2023/06/28 09:02:45;;;;;;;8.80;3.20;;;;;;;17.99;59.92;97632.41;106710;1276;26516;-76
2023/06/28 09:05:12;;;;;;;7.50;3.10;;;;;;;17.86;60.09;97623.39;106771;1276;25411;-78
2023/06/28 09:07:40;;;;;;;5.90;2.40;;;;;;;18.00;60.25;97620.50;107206;1269;24062;-78
2023/06/28 09:10:10;;;;;;;4.80;2.70;;;;;;;18.15;59.89;97625.52;107103;1276;22598;-78
2023/06/28 09:12:38;;;;;;;4.90;2.80;;;;;;;18.33;59.99;97614.01;107116;1276;23476;-78
2023/06/28 09:15:06;;;;;;;6.00;2.90;;;;;;;18.30;59.65;97617.83;106821;1276;22535;-77
2023/06/28 09:17:33;;;;;;;6.10;2.90;;;;;;;18.12;59.71;97621.17;106802;1276;22652;-78
2023/06/28 09:20:07;;;;;;;5.80;2.70;;;;;;;17.89;60.54;97613.02;106758;1276;22683;-77
2023/06/28 09:22:34;;;;;;;5.50;2.70;;;;;;;17.77;60.70;97619.42;106723;1276;25306;-77
2023/06/28 09:25:05;;;;;;;5.00;2.70;;;;;;;17.59;60.27;97614.90;106671;1276;22613;-76
2023/06/28 09:27:31;;;;;;;5.00;2.60;;;;;;;17.42;60.44;97615.73;106689;1276;22642;-77
2023/06/28 09:30:21;;;;;;;9.50;3.80;;;;;;;17.34;60.81;97619.73;107182;1276;24288;-77
2023/06/28 09:32:51;;;;;;;6.20;2.60;;;;;;;17.34;61.21;97616.06;106757;1276;24183;-77
2023/06/28 09:35:20;;;;;;;4.20;2.50;;;;;;;17.44;60.72;97614.92;106777;1276;24237;-77
2023/06/28 09:37:50;;;;;;;6.90;3.10;;;;;;;17.47;60.31;97612.04;106758;1277;22540;-77
2023/06/28 09:40:17;;;;;;;4.60;2.60;;;;;;;17.68;60.11;97614.83;106722;1277;22557;-75
2023/06/28 09:42:46;;;;;;;8.20;2.90;;;;;;;17.98;59.57;97610.34;106793;1276;24223;-77
2023/06/28 09:45:37;;;;;;;7.30;3.40;;;;;;;18.30;58.38;97603.52;106761;1277;22534;-77
2023/06/28 09:48:04;;;;;;;7.30;2.70;;;;;;;18.43;56.19;97611.48;106961;1276;22527;-77
2023/06/28 09:50:41;;;;;;;7.70;2.90;;;;;;;18.28;56.01;97602.13;106720;1276;25453;-77
2023/06/28 09:53:13;;;;;;;6.30;3.40;;;;;;;18.17;56.73;97607.98;107136;1276;22534;-78
2023/06/28 09:55:42;;;;;;;5.50;2.50;;;;;;;17.93;58.03;97608.65;107075;1254;23390;-77
2023/06/28 09:58:14;;;;;;;6.50;2.70;;;;;;;17.55;60.10;97617.20;106835;1276;22526;-77
2023/06/28 10:00:43;;;;;;;6.90;3.00;;;;;;;17.19;62.27;97633.70;106881;1276;25233;-79
2023/06/28 10:03:11;;;;;;;8.80;3.40;;;;;;;16.58;62.32;97630.61;107057;1260;22551;-79
2023/06/28 10:05:41;;;;;;;6.00;3.50;;;;;;;16.10;63.50;97619.30;106803;1276;22547;-78
2023/06/28 10:08:13;;;;;;;5.40;3.20;;;;;;;15.82;66.80;97614.70;106737;1276;22639;-79
2023/06/28 10:10:42;;;;;;;4.30;2.80;;;;;;;15.62;70.04;97615.36;106799;1276;22567;-79
2023/06/28 10:13:12;;;;;;;3.90;2.50;;;;;;;15.48;71.51;97612.44;106797;1276;24243;-79
2023/06/28 10:15:48;;;;;;;7.20;3.50;;;;;;;15.43;72.14;97608.22;107102;1277;24209;-79
2023/06/28 10:18:16;;;;;;;5.30;3.20;;;;;;;15.41;73.04;97614.30;106693;1276;24239;-79
2023/06/28 10:20:43;;;;;;;6.30;2.80;;;;;;;15.46;74.44;97614.27;107178;1276;25411;-79
2023/06/28 10:23:13;;;;;;;7.00;3.20;;;;;;;15.53;75.69;97621.96;107146;1276;24521;-78
2023/06/28 10:25:41;;;;;;;6.70;2.90;;;;;;;15.79;76.26;97619.27;106746;1277;24346;-78
2023/06/28 10:28:09;;;;;;;4.90;3.00;;;;;;;16.13;76.04;97622.14;107132;1276;23336;-78
2023/06/28 10:30:39;;;;;;;6.30;3.50;;;;;;;16.27;72.84;97625.42;106680;1276;23505;-78
2023/06/28 10:33:06;;;;;;;8.10;3.00;;;;;;;16.20;71.86;97625.59;106741;1276;25536;-77
2023/06/28 10:35:34;;;;;;;5.90;3.10;;;;;;;16.25;72.56;97622.57;106738;1276;25353;-77
2023/06/28 10:38:00;;;;;;;6.50;3.20;;;;;;;16.60;72.38;97623.52;106703;1276;23904;-77
2023/06/28 10:40:28;;;;;;;6.90;3.20;;;;;;;17.00;71.86;97618.80;107078;1276;24421;-77
2023/06/28 10:42:54;;;;;;;4.50;2.50;;;;;;;17.32;70.44;97613.15;106698;1276;26685;-76
2023/06/28 10:45:35;;;;;;;7.30;2.60;;;;;;;17.38;69.36;97612.89;106682;1276;24214;-76
2023/06/28 10:48:02;;;;;;;7.90;2.60;;;;;;;17.56;68.15;97612.09;106737;1276;22584;-76
2023/06/28 10:50:41;;;;;;;5.30;2.60;;;;;;;17.82;67.34;97609.40;106873;1262;22530;-77
2023/06/28 10:53:19;;;;;;;7.20;2.80;;;;;;;18.07;66.74;97607.19;106791;1276;25722;-76
2023/06/28 10:56:14;;;;;;;5.30;2.50;;;;;;;18.22;67.43;97606.27;106739;1276;24259;-76
2023/06/28 10:58:42;;;;;;;;;;;;;;;18.06;63.20;97606.91;106731;1276;25491;-76
2023/06/28 11:01:13;;;;;;;11.10;3.20;;;;;;;17.82;63.25;97604.52;106699;1276;25338;-76
2023/06/28 11:03:44;;;;;;;7.60;3.50;;;;;;;17.73;62.74;97604.88;106918;1276;22551;-77
2023/06/28 11:06:12;;;;;;;5.90;3.20;;;;;;;17.79;61.46;97605.21;106718;1276;22544;-78
2023/06/28 11:08:43;;;;;;;5.40;2.50;;;;;;;17.85;61.32;97600.84;107153;1276;22543;-77
2023/06/28 11:11:31;;;;;;;8.80;3.40;;;;;;;17.90;60.63;97598.94;106713;1276;24592;-77
2023/06/28 11:13:57;;;;;;;6.50;2.90;;;;;;;17.99;60.08;97597.73;106844;1276;22541;-76
2023/06/28 11:16:24;;;;;;;6.60;3.10;;;;;;;18.17;60.78;97590.75;106773;1276;22527;-78
2023/06/28 11:18:52;;;;;;;7.40;3.00;;;;;;;18.44;59.70;97585.31;106947;1269;25278;-78
2023/06/28 11:21:24;;;;;;;6.30;2.80;;;;;;;18.68;59.22;97593.69;106784;1276;22804;-76
2023/06/28 11:23:56;;;;;;;6.40;3.20;;;;;;;18.89;58.43;97591.00;106810;1276;25287;-76
2023/06/28 11:26:42;;;;;;;11.90;3.40;;;;;;;19.06;58.17;97589.39;106783;1276;23030;-76
2023/06/28 11:29:16;;;;;;;4.80;2.60;;;;;;;19.02;56.90;97603.42;106770;1276;22538;-76